CDT,Max TemperatureF,Mean TemperatureF,Min TemperatureF,Max Dew PointF,MeanDew PointF,Min DewpointF,Max Humidity, Mean Humidity, Min Humidity, Max Sea Level PressureIn, Mean Sea Level PressureIn, Min Sea Level PressureIn, Max VisibilityMiles, Mean VisibilityMiles, Min VisibilityMiles, Max Wind SpeedMPH, Mean Wind SpeedMPH, Max Gust SpeedMPH,PrecipitationIn, CloudCover, Events, WindDirDegrees
2013-3-1,75,63,50,43,35,20,71,43,14,30.31,30.24,30.17,10,10,10,16,5,21,0.00,0,,198
2013-3-2,71,59,47,46,37,30,71,49,26,30.40,30.31,30.23,10,10,10,20,10,28,0.00,0,,10
2013-3-3,77,60,42,53,44,37,86,58,29,30.31,30.20,30.07,10,10,10,22,9,29,0.00,0,,155
2013-3-4,82,71,60,62,57,54,84,62,39,30.04,29.91,29.81,10,10,8,32,23,45,0.00,2,,176
2013-3-5,79,67,54,65,53,35,93,66,39,30.29,30.09,29.84,10,10,8,30,13,41,0.00,3,,342
2013-3-6,72,61,49,52,45,35,80,62,44,30.36,30.29,30.21,10,10,10,15,7,21,0.00,0,,21
2013-3-7,77,67,56,65,61,52,93,79,64,30.19,30.13,30.09,10,10,10,22,12,28,T,6,,107
2013-3-8,80,74,68,68,66,64,97,81,64,30.11,30.05,29.99,10,10,6,28,15,35,0.26,7,Rain,142
2013-3-9,81,76,70,70,67,65,93,78,62,30.02,29.83,29.72,10,10,9,33,23,43,T,5,,155
2013-3-10,78,72,66,70,58,43,93,62,31,30.04,29.81,29.63,10,10,9,32,18,43,0.00,6,,354
2013-3-11,74,62,49,47,40,29,71,46,20,30.18,30.09,30.02,10,10,10,22,8,30,0.00,2,,24
2013-3-12,79,63,46,51,43,37,93,59,25,30.22,30.14,30.09,10,10,10,17,5,22,0.00,0,,125
2013-3-13,79,65,50,57,52,47,96,69,42,30.38,30.30,30.23,10,10,10,17,6,23,0.00,0,,78
2013-3-14,81,68,54,61,55,52,100,70,39,30.38,30.31,30.26,10,10,9,18,8,23,0.00,1,,122
2013-3-15,81,67,53,60,56,53,100,70,39,30.27,30.17,30.07,10,10,2,25,12,33,0.00,0,Rain,149
2013-3-16,82,71,60,65,63,58,97,78,58,30.06,29.92,29.82,10,10,10,30,17,37,0.01,4,Rain,154
2013-3-17,86,76,66,70,67,64,93,72,51,29.82,29.75,29.67,10,10,9,24,14,30,0.00,3,,156
2013-3-18,99,83,66,70,66,54,100,62,24,29.83,29.76,29.71,10,8,0,17,8,22,0.00,3,Fog-Rain,156
2013-3-19,85,75,65,70,68,65,100,78,55,29.94,29.86,29.77,10,4,0,20,9,24,0.00,5,Fog-Rain,83
2013-3-20,77,69,60,71,65,57,93,77,60,30.09,29.98,29.82,10,9,5,29,12,39,T,7,Rain,51
2013-3-21,83,71,58,68,63,56,90,73,56,30.04,29.82,29.69,10,10,2,23,12,30,T,7,,138
2013-3-22,81,75,69,72,70,68,97,86,74,29.71,29.66,29.61,10,8,4,18,10,24,T,8,Rain,146
2013-3-23,96,83,69,72,69,66,100,71,41,29.69,29.63,29.56,10,4,0,16,7,22,0.00,6,Fog,87
2013-3-24,76,68,59,68,55,29,97,58,19,30.08,29.89,29.68,10,8,2,29,12,44,0.01,6,Rain,21
2013-3-25,70,64,57,47,44,38,60,51,42,30.31,30.19,30.07,10,10,10,21,12,26,0.00,7,,38
2013-3-26,71,64,56,44,41,38,57,47,36,30.43,30.35,30.30,10,10,10,20,11,28,0.00,7,,65
2013-3-27,71,66,61,56,50,44,73,61,49,30.33,30.25,30.19,10,10,10,21,13,26,0.00,8,,123
2013-3-28,76,70,64,61,60,57,84,72,60,30.20,30.16,30.12,10,10,10,23,12,29,0.00,7,,136
2013-3-29,82,73,63,65,62,60,93,72,51,30.16,30.11,30.05,10,10,10,24,13,30,0.00,4,,132
2013-3-30,85,77,68,68,66,65,90,73,55,30.09,30.02,29.95,10,10,9,24,13,30,0.00,6,,143
2013-3-31,86,77,67,70,67,65,100,76,51,29.98,29.90,29.79,10,8,3,26,14,32,0.00,4,,147